createdAt,value
2019-02-06T00:02:38.846Z,129.93
2019-02-06T00:05:45.568Z,138.37
2019-02-06T00:08:52.250Z,137.37
2019-02-06T00:11:59.058Z,141.70
2019-02-06T00:15:06.270Z,142.13
2019-02-06T00:18:12.965Z,140.97
2019-02-06T00:21:20.609Z,178.67
2019-02-06T00:24:27.614Z,203.83
2019-02-06T00:27:34.292Z,155.70
2019-02-06T00:30:41.065Z,112.83
2019-02-06T00:33:48.346Z,95.10
2019-02-06T00:36:55.133Z,92.07
2019-02-06T00:40:01.964Z,92.13
2019-02-06T00:43:08.655Z,101.17
2019-02-06T00:46:15.392Z,152.57
2019-02-06T00:49:22.083Z,128.83
2019-02-06T00:52:28.801Z,118.00
2019-02-06T00:55:35.864Z,123.13
2019-02-06T00:58:42.600Z,126.00
2019-02-06T01:01:49.526Z,140.80
2019-02-06T01:04:57.748Z,120.40
2019-02-06T01:08:04.490Z,125.83
2019-02-06T01:11:11.216Z,124.00
2019-02-06T01:14:17.938Z,119.87
2019-02-06T01:17:25.898Z,128.13
2019-02-06T01:20:32.842Z,128.67
2019-02-06T01:23:39.507Z,123.27
2019-02-06T01:26:46.502Z,124.30
2019-02-06T01:29:53.163Z,120.70
2019-02-06T01:33:00.150Z,121.63
2019-02-06T01:36:07.050Z,128.40
2019-02-06T01:39:14.107Z,122.70
2019-02-06T01:42:20.865Z,120.90
2019-02-06T01:45:27.513Z,116.80
2019-02-06T01:48:34.908Z,132.13
2019-02-06T01:51:41.647Z,109.87
2019-02-06T01:54:48.348Z,113.90
2019-02-06T01:57:55.078Z,99.33
2019-02-06T02:01:01.744Z,107.53
2019-02-06T02:04:08.516Z,109.93
2019-02-06T02:07:15.202Z,102.80
2019-02-06T02:10:21.919Z,101.07
2019-02-06T02:13:28.664Z,105.63
2019-02-06T02:16:35.357Z,100.97
2019-02-06T02:19:42.413Z,95.07
2019-02-06T02:22:49.417Z,86.50
2019-02-06T02:25:56.134Z,89.07
2019-02-06T02:29:04.062Z,88.17
2019-02-06T02:32:10.896Z,83.83
2019-02-06T02:35:17.600Z,79.73
2019-02-06T02:38:24.266Z,83.50
2019-02-06T02:41:31.126Z,80.57
2019-02-06T02:44:37.770Z,80.47
2019-02-06T02:47:44.542Z,77.27
2019-02-06T02:50:51.295Z,74.70
2019-02-06T02:53:57.992Z,74.43
2019-02-06T02:57:04.837Z,75.70
2019-02-06T03:00:19.388Z,70.27
2019-02-06T03:03:42.550Z,68.20
2019-02-06T03:06:49.550Z,70.90
2019-02-06T03:09:56.266Z,67.40
2019-02-06T03:13:03.029Z,73.30
2019-02-06T03:16:09.679Z,70.43
2019-02-06T03:19:16.744Z,65.77
2019-02-06T03:22:23.456Z,65.60
2019-02-06T03:25:30.190Z,65.37
2019-02-06T03:28:37.039Z,70.77
2019-02-06T03:31:43.756Z,70.50
2019-02-06T03:34:50.432Z,71.97
2019-02-06T03:37:57.212Z,67.80
2019-02-06T03:41:03.930Z,73.37
2019-02-06T03:44:10.727Z,66.90
2019-02-06T03:47:17.441Z,69.40
2019-02-06T03:50:24.302Z,67.80
2019-02-06T03:53:31.030Z,72.27
2019-02-06T03:56:37.724Z,61.83
2019-02-06T03:59:44.722Z,60.53
2019-02-06T04:02:51.492Z,60.20
2019-02-06T04:05:58.242Z,58.37
2019-02-06T04:09:07.920Z,62.40
2019-02-06T04:12:14.610Z,63.77
2019-02-06T04:15:21.460Z,72.03
2019-02-06T04:18:28.280Z,70.47
2019-02-06T04:21:35.386Z,69.67
2019-02-06T04:24:42.470Z,83.13
2019-02-06T04:27:49.220Z,71.17
2019-02-06T04:30:56.036Z,71.07
2019-02-06T04:34:03.252Z,73.57
2019-02-06T04:37:10.111Z,82.70
2019-02-06T04:40:18.175Z,86.40
2019-02-06T04:43:25.170Z,89.73
2019-02-06T04:46:32.016Z,97.33
2019-02-06T04:49:38.823Z,78.20
2019-02-06T04:52:45.680Z,90.90
2019-02-06T04:55:52.334Z,83.63
2019-02-06T04:59:01.696Z,102.20
2019-02-06T05:02:08.578Z,90.53
2019-02-06T05:05:16.108Z,102.37
2019-02-06T05:08:22.829Z,114.73
2019-02-06T05:11:29.532Z,102.97
2019-02-06T05:14:36.490Z,108.07
2019-02-06T05:17:43.153Z,108.60
2019-02-06T05:20:49.998Z,107.27
2019-02-06T05:23:56.755Z,101.17
2019-02-06T05:27:03.578Z,99.73
2019-02-06T05:30:10.825Z,104.93
2019-02-06T05:33:17.644Z,125.30
2019-02-06T05:36:24.680Z,137.87
2019-02-06T05:39:31.667Z,131.90
2019-02-06T05:42:38.446Z,125.17
2019-02-06T05:45:45.284Z,116.77
2019-02-06T05:48:52.423Z,108.30
2019-02-06T05:52:01.148Z,102.00
2019-02-06T05:55:07.687Z,101.67
2019-02-06T05:58:14.433Z,113.77
2019-02-06T06:01:24.933Z,120.30
2019-02-06T06:04:31.920Z,100.50
2019-02-06T06:07:45.395Z,106.40
2019-02-06T06:10:47.394Z,103.63
2019-02-06T06:13:57.535Z,110.37
2019-02-06T06:17:04.457Z,118.80
2019-02-06T06:20:11.813Z,109.43
2019-02-06T06:23:18.681Z,113.67
2019-02-06T06:26:25.533Z,103.80
2019-02-06T06:29:32.647Z,120.63
2019-02-06T06:32:43.707Z,94.90
2019-02-06T06:35:52.194Z,89.80
2019-02-06T06:38:59.569Z,105.27
2019-02-06T06:42:06.632Z,97.80
2019-02-06T06:45:15.260Z,117.00
2019-02-06T06:48:22.932Z,120.87
2019-02-06T06:51:29.909Z,117.30
2019-02-06T06:54:37.700Z,117.60
2019-02-06T06:57:45.063Z,116.73
2019-02-06T07:00:52.285Z,103.50
2019-02-06T07:03:59.563Z,101.30
2019-02-06T07:07:06.869Z,104.37
2019-02-06T07:10:13.825Z,111.30
2019-02-06T07:13:21.053Z,102.73
2019-02-06T07:16:27.987Z,104.80
2019-02-06T07:19:34.732Z,99.17
2019-02-06T07:22:41.517Z,95.70
2019-02-06T07:25:48.250Z,90.30
2019-02-06T07:28:55.475Z,85.20
2019-02-06T07:32:06.333Z,90.67
2019-02-06T07:35:13.314Z,95.63
2019-02-06T07:38:24.311Z,92.53
2019-02-06T07:41:29.380Z,85.27
2019-02-06T07:44:37.613Z,95.93
2019-02-06T07:47:44.453Z,93.47
2019-02-06T07:50:51.172Z,104.40
2019-02-06T07:53:57.910Z,100.47
2019-02-06T07:57:06.524Z,95.33
2019-02-06T08:00:14.711Z,103.83
2019-02-06T08:03:22.111Z,102.33
2019-02-06T08:06:29.013Z,103.23
2019-02-06T08:09:38.491Z,110.20
2019-02-06T08:12:45.488Z,96.33
2019-02-06T08:15:52.454Z,113.50
2019-02-06T08:18:59.565Z,113.67
2019-02-06T08:22:06.386Z,112.70
2019-02-06T08:25:14.322Z,96.83
2019-02-06T08:28:21.359Z,112.67
2019-02-06T08:31:29.875Z,111.53
2019-02-06T08:34:36.816Z,121.07
2019-02-06T08:37:43.804Z,85.23
2019-02-06T08:40:52.312Z,81.90
2019-02-06T08:44:01.746Z,82.50
2019-02-06T08:47:07.844Z,97.90
2019-02-06T08:50:15.140Z,94.70
2019-02-06T08:53:22.554Z,91.20
2019-02-06T08:56:29.458Z,95.53
2019-02-06T08:59:36.660Z,83.83
2019-02-06T09:02:44.569Z,101.27
2019-02-06T09:05:51.413Z,98.83
2019-02-06T09:09:01.989Z,88.80
2019-02-06T09:12:10.888Z,116.47
2019-02-06T09:15:18.021Z,100.23
2019-02-06T09:18:25.422Z,106.27
2019-02-06T09:21:32.171Z,101.50
2019-02-06T09:24:40.013Z,96.77
2019-02-06T09:27:48.941Z,73.87
2019-02-06T09:30:55.783Z,86.10
2019-02-06T09:34:02.461Z,87.33
2019-02-06T09:37:09.766Z,85.17
2019-02-06T09:40:18.100Z,78.67
2019-02-06T09:43:27.491Z,71.73
2019-02-06T09:46:35.519Z,74.83
2019-02-06T09:49:42.424Z,72.70
2019-02-06T09:52:49.137Z,83.83
2019-02-06T09:55:56.193Z,66.17
2019-02-06T09:59:03.351Z,75.17
2019-02-06T10:02:10.027Z,73.53
2019-02-06T10:05:17.235Z,68.33
2019-02-06T10:08:24.428Z,92.77
2019-02-06T10:11:31.114Z,71.50
2019-02-06T10:14:38.886Z,88.70
2019-02-06T10:17:45.675Z,85.57
2019-02-06T10:20:53.167Z,98.27
2019-02-06T10:24:01.042Z,100.40
2019-02-06T10:27:09.527Z,82.77
2019-02-06T10:30:28.371Z,80.50
2019-02-06T10:33:35.565Z,93.30
2019-02-06T10:36:42.338Z,85.63
2019-02-06T10:39:49.310Z,77.30
2019-02-06T10:42:56.135Z,76.97
2019-02-06T10:46:02.928Z,68.27
2019-02-06T10:49:10.830Z,74.17
2019-02-06T10:52:18.349Z,80.87
2019-02-06T10:55:25.137Z,79.70
2019-02-06T10:58:31.913Z,79.20
2019-02-06T11:01:38.704Z,73.97
2019-02-06T11:04:45.706Z,65.27
2019-02-06T11:07:52.549Z,61.67
2019-02-06T11:10:59.431Z,71.90
2019-02-06T11:14:06.310Z,68.70
2019-02-06T11:17:13.117Z,79.47
2019-02-06T11:20:20.935Z,69.53
2019-02-06T11:23:27.762Z,67.83
2019-02-06T11:26:34.922Z,62.17
2019-02-06T11:29:43.823Z,55.60
2019-02-06T11:32:50.703Z,60.03
2019-02-06T11:35:57.433Z,64.07
2019-02-06T11:39:07.297Z,55.77
2019-02-06T11:42:14.018Z,63.30
2019-02-06T11:45:22.723Z,54.07
2019-02-06T11:48:29.545Z,60.60
2019-02-06T11:51:36.340Z,53.90
2019-02-06T11:54:45.640Z,41.67
2019-02-06T11:57:52.375Z,45.87
2019-02-06T12:01:21.092Z,43.90
2019-02-06T12:04:27.961Z,33.83
2019-02-06T12:07:34.815Z,26.77
2019-02-06T12:10:41.639Z,24.80
2019-02-06T12:13:48.337Z,30.87
2019-02-06T12:16:55.149Z,19.83
2019-02-06T12:20:01.916Z,24.50
2019-02-06T12:23:08.761Z,24.37
2019-02-06T12:26:15.540Z,14.83
2019-02-06T12:29:22.455Z,16.50
2019-02-06T12:32:29.215Z,17.27
2019-02-06T12:35:36.192Z,20.60
2019-02-06T12:38:53.121Z,18.53
2019-02-06T12:41:51.574Z,26.97
2019-02-06T12:44:59.056Z,16.77
2019-02-06T12:48:06.182Z,17.43
2019-02-06T12:51:12.994Z,16.97
2019-02-06T12:54:20.147Z,19.90
2019-02-06T12:57:36.271Z,21.40
2019-02-06T13:00:36.672Z,23.33
2019-02-06T13:03:43.435Z,21.97
2019-02-06T13:06:50.238Z,24.67
2019-02-06T13:09:56.888Z,24.10
2019-02-06T13:13:03.645Z,22.70
2019-02-06T13:16:11.050Z,24.07
2019-02-06T13:19:18.792Z,22.67
2019-02-06T13:22:25.572Z,27.30
2019-02-06T13:25:32.394Z,25.83
2019-02-06T13:28:39.122Z,28.67
2019-02-06T13:31:46.003Z,41.27
2019-02-06T13:34:52.798Z,38.80
2019-02-06T13:37:59.946Z,32.57
2019-02-06T13:41:06.752Z,33.43
2019-02-06T13:44:13.636Z,31.43
2019-02-06T13:47:20.604Z,29.13
2019-02-06T13:50:27.462Z,42.70
2019-02-06T13:53:34.356Z,28.03
2019-02-06T13:56:41.066Z,30.30
2019-02-06T13:59:48.887Z,32.23
2019-02-06T14:02:55.723Z,48.10
2019-02-06T14:06:02.468Z,50.10
2019-02-06T14:09:22.246Z,69.33
2019-02-06T14:12:22.675Z,51.30
2019-02-06T14:15:32.061Z,46.80
2019-02-06T14:18:39.067Z,62.77
2019-02-06T14:21:45.961Z,53.43
2019-02-06T14:24:58.190Z,42.70
2019-02-06T14:29:04.845Z,33.37
2019-02-06T14:33:21.525Z,30.73
2019-02-06T14:37:15.607Z,32.77
2019-02-06T14:41:07.965Z,47.13
2019-02-06T14:44:48.198Z,50.33
2019-02-06T14:48:29.638Z,32.20
2019-02-06T14:52:48.039Z,43.33
2019-02-06T14:56:45.578Z,58.37
2019-02-06T15:00:22.776Z,53.03
2019-02-06T15:03:46.225Z,71.87
2019-02-06T15:07:30.406Z,112.67
2019-02-06T15:10:57.627Z,144.53
2019-02-06T15:14:34.454Z,106.30
2019-02-06T15:18:04.088Z,101.37
2019-02-06T15:21:39.389Z,115.63
2019-02-06T15:25:22.482Z,115.47
2019-02-06T15:29:11.791Z,117.47
2019-02-06T15:32:35.737Z,75.27
2019-02-06T15:36:03.470Z,111.80
2019-02-06T15:39:52.952Z,154.17
2019-02-06T15:43:22.600Z,137.23
2019-02-06T15:46:54.222Z,143.57
2019-02-06T15:50:31.012Z,141.93
2019-02-06T15:54:24.212Z,194.37
2019-02-06T15:58:04.341Z,277.17
2019-02-06T16:01:22.460Z,265.63
2019-02-06T16:05:15.896Z,249.97
2019-02-06T16:09:04.259Z,212.97
2019-02-06T16:12:50.914Z,304.17
2019-02-06T16:16:46.306Z,333.00
2019-02-06T16:20:17.872Z,341.17
2019-02-06T16:23:49.856Z,233.47
2019-02-06T16:27:35.820Z,235.97
2019-02-06T16:31:11.331Z,200.70
2019-02-06T16:35:07.954Z,172.23
2019-02-06T16:38:58.842Z,149.40
2019-02-06T16:42:53.573Z,124.10
2019-02-06T16:46:45.842Z,164.77
2019-02-06T16:50:29.624Z,162.93
2019-02-06T16:54:13.311Z,146.07
2019-02-06T16:58:02.160Z,94.23
2019-02-06T17:01:58.402Z,61.63
2019-02-06T17:05:48.275Z,77.40
2019-02-06T17:09:53.217Z,82.07
2019-02-06T17:13:37.296Z,65.07
2019-02-06T17:17:06.492Z,55.60
2019-02-06T17:21:07.834Z,119.60
2019-02-06T17:24:46.658Z,256.67
2019-02-06T17:28:33.986Z,275.40
2019-02-06T17:32:15.388Z,122.43
2019-02-06T17:35:45.177Z,90.97
2019-02-06T17:39:42.280Z,94.17
2019-02-06T17:43:23.878Z,61.63
2019-02-06T17:47:22.573Z,75.83
2019-02-06T17:50:58.142Z,57.07
2019-02-06T17:54:33.622Z,86.93
2019-02-06T17:57:40.354Z,74.33
2019-02-06T18:01:16.711Z,369.10
2019-02-06T18:04:36.209Z,305.73
2019-02-06T18:08:02.804Z,77.70
2019-02-06T18:11:41.978Z,71.00
2019-02-06T18:15:20.276Z,56.53
2019-02-06T18:19:00.484Z,69.60
2019-02-06T18:22:38.920Z,149.23
2019-02-06T18:26:18.747Z,206.97
2019-02-06T18:29:58.951Z,163.93
2019-02-06T18:33:39.871Z,295.40
2019-02-06T18:36:59.652Z,327.73
2019-02-06T18:40:08.518Z,318.80
2019-02-06T18:43:18.393Z,231.60
2019-02-06T18:46:25.203Z,229.20
2019-02-06T18:49:32.743Z,191.23
2019-02-06T18:52:39.890Z,171.10
2019-02-06T18:55:46.570Z,135.67
2019-02-06T18:58:53.432Z,180.80
2019-02-06T19:02:00.394Z,198.67
2019-02-06T19:05:10.484Z,237.07
2019-02-06T19:08:17.214Z,173.80
2019-02-06T19:11:24.735Z,135.03
2019-02-06T19:14:32.757Z,134.53
2019-02-06T19:17:39.470Z,206.53
2019-02-06T19:20:47.158Z,192.77
2019-02-06T19:23:53.814Z,218.60
2019-02-06T19:27:00.562Z,231.77
2019-02-06T19:30:30.640Z,200.63
2019-02-06T19:33:37.298Z,238.90
2019-02-06T19:36:44.135Z,232.20
2019-02-06T19:39:52.385Z,266.90
2019-02-06T19:43:02.533Z,301.10
2019-02-06T19:46:07.652Z,299.40
2019-02-06T19:49:14.364Z,299.90
2019-02-06T19:52:21.348Z,265.70
2019-02-06T19:55:28.117Z,160.80
2019-02-06T19:58:34.915Z,169.90
2019-02-06T20:01:43.472Z,164.77
2019-02-06T20:04:50.481Z,173.30
2019-02-06T20:07:58.380Z,116.37
2019-02-06T20:11:06.192Z,96.10
2019-02-06T20:14:13.224Z,81.63
2019-02-06T20:17:20.020Z,70.17
2019-02-06T20:20:26.802Z,89.07
2019-02-06T20:23:34.664Z,89.80
2019-02-06T20:26:41.417Z,84.70
2019-02-06T20:29:48.158Z,89.97
2019-02-06T20:32:54.991Z,98.07
2019-02-06T20:36:01.741Z,313.67
2019-02-06T20:39:09.655Z,147.33
2019-02-06T20:42:17.497Z,246.37
2019-02-06T20:45:24.272Z,150.33
2019-02-06T20:48:30.951Z,160.93
2019-02-06T20:51:37.794Z,148.50
2019-02-06T20:54:44.789Z,192.23
2019-02-06T20:57:51.629Z,149.07
2019-02-06T21:00:58.412Z,160.83
2019-02-06T21:04:05.552Z,106.27
2019-02-06T21:07:12.983Z,128.77
2019-02-06T21:10:22.708Z,111.63
2019-02-06T21:13:33.275Z,106.93
2019-02-06T21:16:37.879Z,108.07
2019-02-06T21:19:45.015Z,169.27
2019-02-06T21:22:51.708Z,165.10
2019-02-06T21:25:59.944Z,134.60
2019-02-06T21:29:07.633Z,121.70
2019-02-06T21:32:14.567Z,150.33
2019-02-06T21:35:21.283Z,189.70
2019-02-06T21:38:28.132Z,172.10
2019-02-06T21:41:35.325Z,198.67
2019-02-06T21:44:42.353Z,202.37
2019-02-06T21:47:49.487Z,226.17
2019-02-06T21:55:16.910Z,225.70
2019-02-06T21:58:23.961Z,210.53
2019-02-06T22:01:31.213Z,188.97
2019-02-06T22:04:38.235Z,299.43
2019-02-06T22:07:45.059Z,333.67
2019-02-06T22:10:52.013Z,291.83
2019-02-06T22:13:59.097Z,184.47
2019-02-06T22:17:06.045Z,205.87
2019-02-06T22:20:14.053Z,191.57
2019-02-06T22:23:21.227Z,202.67
2019-02-06T22:26:28.116Z,172.60
2019-02-06T22:29:34.932Z,227.73
2019-02-06T22:32:41.686Z,266.40
2019-02-06T22:35:48.491Z,272.83
2019-02-06T22:38:55.360Z,250.80
2019-02-06T22:42:02.206Z,223.67
2019-02-06T22:45:11.847Z,173.00
2019-02-06T22:48:18.870Z,232.47
2019-02-06T22:51:25.689Z,217.73
2019-02-06T22:54:32.487Z,210.23
2019-02-06T22:57:39.363Z,236.80
2019-02-06T23:01:15.210Z,219.77
2019-02-06T23:04:23.158Z,153.00
2019-02-06T23:07:29.973Z,182.90
2019-02-06T23:10:37.240Z,170.07
2019-02-06T23:13:44.489Z,161.03
2019-02-06T23:16:51.421Z,186.23
2019-02-06T23:19:58.228Z,181.50
2019-02-06T23:23:05.361Z,184.10
2019-02-06T23:26:12.671Z,232.43
2019-02-06T23:29:19.506Z,254.20
2019-02-06T23:32:26.415Z,219.27
2019-02-06T23:35:33.341Z,175.43
2019-02-06T23:38:40.599Z,164.70
2019-02-06T23:41:47.739Z,122.87
2019-02-06T23:44:54.837Z,133.13
2019-02-06T23:48:01.685Z,104.03
2019-02-06T23:51:08.611Z,162.83
2019-02-06T23:54:15.543Z,136.30
2019-02-06T23:57:22.372Z,108.67
